sensor_id;sensor_type;location;lat;lon;timestamp;P1;P2;P0
56495;PMS5003;42804;55.762;38.084;2023-04-03T00:00:40;24.75;19.25;11.50
56495;PMS5003;42804;55.762;38.084;2023-04-03T00:03:10;12.75;11.00;10.00
56495;PMS5003;42804;55.762;38.084;2023-04-03T00:05:38;17.25;16.50;10.50
56495;PMS5003;42804;55.762;38.084;2023-04-03T00:08:07;19.00;18.50;11.50
56495;PMS5003;42804;55.762;38.084;2023-04-03T00:10:36;17.50;16.75;10.50
56495;PMS5003;42804;55.762;38.084;2023-04-03T00:13:05;16.75;15.50;11.00
56495;PMS5003;42804;55.762;38.084;2023-04-03T00:15:34;16.25;15.25;11.00
56495;PMS5003;42804;55.762;38.084;2023-04-03T00:18:02;21.50;20.00;13.75
56495;PMS5003;42804;55.762;38.084;2023-04-03T00:20:32;23.50;19.75;13.50
56495;PMS5003;42804;55.762;38.084;2023-04-03T00:23:02;20.75;19.00;12.50
56495;PMS5003;42804;55.762;38.084;2023-04-03T00:25:30;12.75;8.50;6.00
56495;PMS5003;42804;55.762;38.084;2023-04-03T00:27:58;23.00;19.50;12.00
56495;PMS5003;42804;55.762;38.084;2023-04-03T00:30:26;20.75;19.00;12.25
56495;PMS5003;42804;55.762;38.084;2023-04-03T00:32:56;20.00;19.00;12.33
56495;PMS5003;42804;55.762;38.084;2023-04-03T00:35:24;20.00;20.00;12.50
56495;PMS5003;42804;55.762;38.084;2023-04-03T00:37:54;17.50;15.50;11.75
56495;PMS5003;42804;55.762;38.084;2023-04-03T00:40:23;19.00;18.50;11.00
56495;PMS5003;42804;55.762;38.084;2023-04-03T00:42:55;18.75;17.50;11.00
56495;PMS5003;42804;55.762;38.084;2023-04-03T00:45:31;18.50;15.25;10.25
56495;PMS5003;42804;55.762;38.084;2023-04-03T00:48:00;17.50;15.50;10.25
56495;PMS5003;42804;55.762;38.084;2023-04-03T00:50:29;20.75;17.75;12.75
56495;PMS5003;42804;55.762;38.084;2023-04-03T00:52:59;18.75;16.50;11.00
56495;PMS5003;42804;55.762;38.084;2023-04-03T00:55:27;21.75;19.25;13.50
56495;PMS5003;42804;55.762;38.084;2023-04-03T00:57:55;18.50;18.00;12.75
56495;PMS5003;42804;55.762;38.084;2023-04-03T01:00:24;24.25;22.25;14.00
56495;PMS5003;42804;55.762;38.084;2023-04-03T01:02:52;20.50;19.00;11.00
56495;PMS5003;42804;55.762;38.084;2023-04-03T01:05:22;22.50;22.25;14.00
56495;PMS5003;42804;55.762;38.084;2023-04-03T01:07:50;22.75;19.00;11.75
56495;PMS5003;42804;55.762;38.084;2023-04-03T01:10:20;20.75;19.00;13.00
56495;PMS5003;42804;55.762;38.084;2023-04-03T01:12:49;26.50;23.00;14.00
56495;PMS5003;42804;55.762;38.084;2023-04-03T01:15:18;22.25;19.00;11.50
56495;PMS5003;42804;55.762;38.084;2023-04-03T01:17:48;24.00;22.25;13.00
56495;PMS5003;42804;55.762;38.084;2023-04-03T01:20:24;20.25;20.25;12.50
56495;PMS5003;42804;55.762;38.084;2023-04-03T01:23:03;24.50;22.50;14.50
56495;PMS5003;42804;55.762;38.084;2023-04-03T01:25:36;27.75;24.00;15.50
56495;PMS5003;42804;55.762;38.084;2023-04-03T01:28:05;25.00;21.50;14.75
56495;PMS5003;42804;55.762;38.084;2023-04-03T01:30:34;21.00;18.25;11.75
56495;PMS5003;42804;55.762;38.084;2023-04-03T01:33:05;20.75;18.25;11.00
56495;PMS5003;42804;55.762;38.084;2023-04-03T01:35:34;18.00;17.50;9.25
56495;PMS5003;42804;55.762;38.084;2023-04-03T01:38:02;28.25;24.00;15.75
56495;PMS5003;42804;55.762;38.084;2023-04-03T01:40:30;27.25;24.50;15.25
56495;PMS5003;42804;55.762;38.084;2023-04-03T01:42:59;26.00;23.50;14.75
56495;PMS5003;42804;55.762;38.084;2023-04-03T01:45:27;28.00;26.00;16.00
56495;PMS5003;42804;55.762;38.084;2023-04-03T01:47:55;26.75;23.75;14.50
56495;PMS5003;42804;55.762;38.084;2023-04-03T01:50:26;24.25;21.25;11.75
56495;PMS5003;42804;55.762;38.084;2023-04-03T01:52:55;27.75;22.25;13.25
56495;PMS5003;42804;55.762;38.084;2023-04-03T01:55:23;23.50;22.00;15.75
56495;PMS5003;42804;55.762;38.084;2023-04-03T01:57:52;25.25;23.00;14.50
56495;PMS5003;42804;55.762;38.084;2023-04-03T02:00:21;30.75;27.25;17.50
56495;PMS5003;42804;55.762;38.084;2023-04-03T02:02:49;23.00;20.50;14.00
56495;PMS5003;42804;55.762;38.084;2023-04-03T02:05:17;24.25;22.50;15.75
56495;PMS5003;42804;55.762;38.084;2023-04-03T02:07:47;32.75;27.75;16.00
56495;PMS5003;42804;55.762;38.084;2023-04-03T02:10:15;31.75;29.25;17.25
56495;PMS5003;42804;55.762;38.084;2023-04-03T02:12:43;40.00;32.75;20.50
56495;PMS5003;42804;55.762;38.084;2023-04-03T02:15:12;33.00;28.75;18.25
56495;PMS5003;42804;55.762;38.084;2023-04-03T02:17:40;27.75;26.50;16.75
56495;PMS5003;42804;55.762;38.084;2023-04-03T02:20:08;26.75;24.50;14.75
56495;PMS5003;42804;55.762;38.084;2023-04-03T02:22:37;20.00;18.75;12.25
56495;PMS5003;42804;55.762;38.084;2023-04-03T02:25:06;27.25;25.25;16.25
56495;PMS5003;42804;55.762;38.084;2023-04-03T02:27:35;25.25;21.00;12.50
56495;PMS5003;42804;55.762;38.084;2023-04-03T02:30:03;26.25;22.25;15.75
56495;PMS5003;42804;55.762;38.084;2023-04-03T02:32:32;24.50;23.25;15.00
56495;PMS5003;42804;55.762;38.084;2023-04-03T02:35:02;28.75;23.00;14.25
56495;PMS5003;42804;55.762;38.084;2023-04-03T02:37:30;24.00;17.25;8.75
56495;PMS5003;42804;55.762;38.084;2023-04-03T02:39:59;24.50;22.25;12.00
56495;PMS5003;42804;55.762;38.084;2023-04-03T02:42:30;27.25;25.75;16.00
56495;PMS5003;42804;55.762;38.084;2023-04-03T02:44:58;20.25;20.25;14.00
56495;PMS5003;42804;55.762;38.084;2023-04-03T02:47:28;30.25;26.00;16.00
56495;PMS5003;42804;55.762;38.084;2023-04-03T02:49:56;26.75;24.25;16.00
56495;PMS5003;42804;55.762;38.084;2023-04-03T02:52:24;21.80;19.80;13.00
56495;PMS5003;42804;55.762;38.084;2023-04-03T02:54:55;29.00;26.00;15.00
56495;PMS5003;42804;55.762;38.084;2023-04-03T02:57:24;30.00;26.50;18.25
56495;PMS5003;42804;55.762;38.084;2023-04-03T02:59:53;45.40;41.40;27.40
56495;PMS5003;42804;55.762;38.084;2023-04-03T03:02:21;60.20;46.20;28.80
56495;PMS5003;42804;55.762;38.084;2023-04-03T03:04:50;67.00;52.60;32.20
56495;PMS5003;42804;55.762;38.084;2023-04-03T03:07:18;70.40;50.20;32.40
56495;PMS5003;42804;55.762;38.084;2023-04-03T03:09:46;66.40;50.60;33.60
56495;PMS5003;42804;55.762;38.084;2023-04-03T03:12:14;54.80;44.80;31.20
56495;PMS5003;42804;55.762;38.084;2023-04-03T03:14:42;61.20;47.00;31.80
56495;PMS5003;42804;55.762;38.084;2023-04-03T03:17:12;65.40;49.80;33.40
56495;PMS5003;42804;55.762;38.084;2023-04-03T03:19:40;72.20;54.20;30.40
56495;PMS5003;42804;55.762;38.084;2023-04-03T03:22:08;59.20;46.40;30.60
56495;PMS5003;42804;55.762;38.084;2023-04-03T03:24:37;47.60;43.00;29.00
56495;PMS5003;42804;55.762;38.084;2023-04-03T03:27:05;70.00;49.00;29.20
56495;PMS5003;42804;55.762;38.084;2023-04-03T03:29:33;66.60;52.40;31.40
56495;PMS5003;42804;55.762;38.084;2023-04-03T03:32:03;68.80;51.80;32.00
56495;PMS5003;42804;55.762;38.084;2023-04-03T03:34:33;68.60;57.80;34.60
56495;PMS5003;42804;55.762;38.084;2023-04-03T03:37:02;47.00;33.40;16.20
56495;PMS5003;42804;55.762;38.084;2023-04-03T03:39:30;64.60;50.40;29.60
56495;PMS5003;42804;55.762;38.084;2023-04-03T03:41:58;62.20;48.60;30.40
56495;PMS5003;42804;55.762;38.084;2023-04-03T03:44:27;65.40;51.00;29.60
56495;PMS5003;42804;55.762;38.084;2023-04-03T03:46:56;55.60;47.00;30.40
56495;PMS5003;42804;55.762;38.084;2023-04-03T03:49:24;68.60;51.20;32.60
56495;PMS5003;42804;55.762;38.084;2023-04-03T03:51:54;77.60;59.60;37.80
56495;PMS5003;42804;55.762;38.084;2023-04-03T03:54:22;73.20;53.00;32.60
56495;PMS5003;42804;55.762;38.084;2023-04-03T03:56:50;66.00;47.40;28.60
56495;PMS5003;42804;55.762;38.084;2023-04-03T03:59:19;70.40;51.80;33.00
56495;PMS5003;42804;55.762;38.084;2023-04-03T04:01:47;64.80;48.20;31.60
56495;PMS5003;42804;55.762;38.084;2023-04-03T04:04:16;60.40;49.00;29.40
56495;PMS5003;42804;55.762;38.084;2023-04-03T04:06:44;61.80;46.00;27.20
56495;PMS5003;42804;55.762;38.084;2023-04-03T04:09:14;40.60;33.20;15.80
56495;PMS5003;42804;55.762;38.084;2023-04-03T04:11:44;60.00;45.80;25.20
56495;PMS5003;42804;55.762;38.084;2023-04-03T04:14:14;55.40;42.60;25.20
56495;PMS5003;42804;55.762;38.084;2023-04-03T04:16:43;60.60;46.20;28.80
56495;PMS5003;42804;55.762;38.084;2023-04-03T04:22:03;47.80;40.40;26.80
56495;PMS5003;42804;55.762;38.084;2023-04-03T04:24:34;39.50;31.00;22.25
56495;PMS5003;42804;55.762;38.084;2023-04-03T04:27:06;37.25;31.75;21.00
56495;PMS5003;42804;55.762;38.084;2023-04-03T04:29:35;35.50;28.75;18.00
56495;PMS5003;42804;55.762;38.084;2023-04-03T04:32:06;40.00;33.00;19.00
56495;PMS5003;42804;55.762;38.084;2023-04-03T04:34:35;40.25;30.25;18.75
56495;PMS5003;42804;55.762;38.084;2023-04-03T04:37:03;36.00;30.00;18.50
56495;PMS5003;42804;55.762;38.084;2023-04-03T04:39:33;31.75;30.50;18.75
56495;PMS5003;42804;55.762;38.084;2023-04-03T04:42:04;38.75;33.75;19.50
56495;PMS5003;42804;55.762;38.084;2023-04-03T04:44:34;33.00;27.75;15.00
56495;PMS5003;42804;55.762;38.084;2023-04-03T04:47:03;37.50;29.75;17.00
56495;PMS5003;42804;55.762;38.084;2023-04-03T04:49:31;44.25;33.75;21.25
56495;PMS5003;42804;55.762;38.084;2023-04-03T04:52:00;36.75;33.50;20.25
56495;PMS5003;42804;55.762;38.084;2023-04-03T04:54:30;34.75;27.25;17.00
56495;PMS5003;42804;55.762;38.084;2023-04-03T04:57:00;34.00;28.75;16.00
56495;PMS5003;42804;55.762;38.084;2023-04-03T04:59:29;28.00;27.75;17.75
56495;PMS5003;42804;55.762;38.084;2023-04-03T05:01:58;23.75;18.25;9.25
56495;PMS5003;42804;55.762;38.084;2023-04-03T05:04:26;33.50;29.25;18.25
56495;PMS5003;42804;55.762;38.084;2023-04-03T05:07:02;26.00;24.50;18.00
56495;PMS5003;42804;55.762;38.084;2023-04-03T05:09:35;40.25;36.75;21.50
56495;PMS5003;42804;55.762;38.084;2023-04-03T05:12:05;29.50;27.50;17.75
56495;PMS5003;42804;55.762;38.084;2023-04-03T05:14:40;26.25;25.25;16.50
56495;PMS5003;42804;55.762;38.084;2023-04-03T05:17:09;32.50;29.75;18.25
56495;PMS5003;42804;55.762;38.084;2023-04-03T05:19:45;29.50;27.00;17.25
56495;PMS5003;42804;55.762;38.084;2023-04-03T05:22:15;28.75;26.75;17.50
56495;PMS5003;42804;55.762;38.084;2023-04-03T05:25:02;34.25;32.75;21.50
56495;PMS5003;42804;55.762;38.084;2023-04-03T05:27:32;32.00;27.25;16.50
56495;PMS5003;42804;55.762;38.084;2023-04-03T05:30:19;35.00;30.75;19.75
56495;PMS5003;42804;55.762;38.084;2023-04-03T05:32:48;41.25;36.50;21.75
56495;PMS5003;42804;55.762;38.084;2023-04-03T05:35:35;32.50;28.75;17.00
56495;PMS5003;42804;55.762;38.084;2023-04-03T05:38:08;30.75;28.25;16.25
56495;PMS5003;42804;55.762;38.084;2023-04-03T05:40:37;39.50;34.25;21.75
56495;PMS5003;42804;55.762;38.084;2023-04-03T05:43:07;16.50;12.00;4.25
56495;PMS5003;42804;55.762;38.084;2023-04-03T05:45:38;30.25;25.75;20.25
56495;PMS5003;42804;55.762;38.084;2023-04-03T05:48:07;30.00;25.25;16.00
56495;PMS5003;42804;55.762;38.084;2023-04-03T05:50:36;37.75;28.75;21.00
56495;PMS5003;42804;55.762;38.084;2023-04-03T05:53:13;34.25;33.25;21.75
56495;PMS5003;42804;55.762;38.084;2023-04-03T05:55:43;33.75;29.50;19.25
56495;PMS5003;42804;55.762;38.084;2023-04-03T05:58:13;42.50;34.75;23.75
56495;PMS5003;42804;55.762;38.084;2023-04-03T06:00:43;33.25;33.00;22.50
56495;PMS5003;42804;55.762;38.084;2023-04-03T06:03:12;30.25;28.00;17.50
56495;PMS5003;42804;55.762;38.084;2023-04-03T06:05:41;26.50;24.75;17.75
56495;PMS5003;42804;55.762;38.084;2023-04-03T06:08:10;30.75;27.75;18.25
56495;PMS5003;42804;55.762;38.084;2023-04-03T06:10:59;28.00;26.75;18.50
56495;PMS5003;42804;55.762;38.084;2023-04-03T06:13:30;23.75;22.75;15.00
56495;PMS5003;42804;55.762;38.084;2023-04-03T06:15:58;24.00;23.25;16.25
56495;PMS5003;42804;55.762;38.084;2023-04-03T06:18:26;17.00;17.00;8.00
56495;PMS5003;42804;55.762;38.084;2023-04-03T06:20:55;19.75;18.75;13.00
56495;PMS5003;42804;55.762;38.084;2023-04-03T06:23:23;30.25;26.75;18.00
56495;PMS5003;42804;55.762;38.084;2023-04-03T06:25:51;26.50;22.75;16.25
56495;PMS5003;42804;55.762;38.084;2023-04-03T06:28:19;24.25;20.00;13.75
56495;PMS5003;42804;55.762;38.084;2023-04-03T06:30:50;24.25;22.25;15.25
56495;PMS5003;42804;55.762;38.084;2023-04-03T06:33:19;27.25;23.50;15.50
56495;PMS5003;42804;55.762;38.084;2023-04-03T06:35:47;19.50;19.50;13.75
56495;PMS5003;42804;55.762;38.084;2023-04-03T06:38:15;22.50;20.25;14.75
56495;PMS5003;42804;55.762;38.084;2023-04-03T06:40:46;22.75;21.25;14.50
56495;PMS5003;42804;55.762;38.084;2023-04-03T06:43:14;22.25;19.00;14.25
56495;PMS5003;42804;55.762;38.084;2023-04-03T06:45:42;29.00;26.00;16.50
56495;PMS5003;42804;55.762;38.084;2023-04-03T06:48:12;25.25;23.75;15.00
56495;PMS5003;42804;55.762;38.084;2023-04-03T06:50:40;27.25;22.50;16.00
56495;PMS5003;42804;55.762;38.084;2023-04-03T06:53:09;21.50;20.00;13.50
56495;PMS5003;42804;55.762;38.084;2023-04-03T06:55:37;24.25;22.75;15.00
56495;PMS5003;42804;55.762;38.084;2023-04-03T06:58:06;24.00;22.50;15.00
56495;PMS5003;42804;55.762;38.084;2023-04-03T07:00:35;19.00;16.25;10.00
56495;PMS5003;42804;55.762;38.084;2023-04-03T07:03:04;19.00;18.25;13.00
56495;PMS5003;42804;55.762;38.084;2023-04-03T07:05:33;24.75;22.00;15.00
56495;PMS5003;42804;55.762;38.084;2023-04-03T07:08:02;25.50;25.00;17.75
56495;PMS5003;42804;55.762;38.084;2023-04-03T07:10:30;22.25;21.25;16.00
56495;PMS5003;42804;55.762;38.084;2023-04-03T07:12:59;26.00;25.25;15.50
56495;PMS5003;42804;55.762;38.084;2023-04-03T07:15:28;26.00;24.00;17.50
56495;PMS5003;42804;55.762;38.084;2023-04-03T07:17:56;20.00;16.50;13.00
56495;PMS5003;42804;55.762;38.084;2023-04-03T07:20:25;21.25;20.50;13.00
56495;PMS5003;42804;55.762;38.084;2023-04-03T07:22:54;27.25;26.50;17.75
56495;PMS5003;42804;55.762;38.084;2023-04-03T07:25:22;24.00;22.00;13.50
56495;PMS5003;42804;55.762;38.084;2023-04-03T07:27:51;30.00;28.25;18.25
56495;PMS5003;42804;55.762;38.084;2023-04-03T07:30:21;26.75;25.25;15.75
56495;PMS5003;42804;55.762;38.084;2023-04-03T07:32:49;30.25;28.50;18.75
56495;PMS5003;42804;55.762;38.084;2023-04-03T07:35:18;27.50;25.75;17.00
56495;PMS5003;42804;55.762;38.084;2023-04-03T07:37:46;29.00;26.00;18.00
56495;PMS5003;42804;55.762;38.084;2023-04-03T07:40:16;26.25;25.50;17.25
56495;PMS5003;42804;55.762;38.084;2023-04-03T07:42:46;28.75;26.50;17.00
56495;PMS5003;42804;55.762;38.084;2023-04-03T07:45:14;34.00;31.75;19.75
56495;PMS5003;42804;55.762;38.084;2023-04-03T07:47:44;35.25;32.00;20.50
56495;PMS5003;42804;55.762;38.084;2023-04-03T07:50:12;30.25;28.25;21.50
56495;PMS5003;42804;55.762;38.084;2023-04-03T07:52:41;33.50;29.75;20.00
56495;PMS5003;42804;55.762;38.084;2023-04-03T07:55:09;28.25;27.00;17.25
56495;PMS5003;42804;55.762;38.084;2023-04-03T07:57:39;36.50;33.25;21.00
56495;PMS5003;42804;55.762;38.084;2023-04-03T08:00:08;32.25;29.75;19.25
56495;PMS5003;42804;55.762;38.084;2023-04-03T08:02:40;35.25;30.75;20.25
56495;PMS5003;42804;55.762;38.084;2023-04-03T08:05:08;30.50;28.50;18.75
56495;PMS5003;42804;55.762;38.084;2023-04-03T08:07:37;32.50;30.25;20.50
56495;PMS5003;42804;55.762;38.084;2023-04-03T08:10:06;33.75;30.00;20.00
56495;PMS5003;42804;55.762;38.084;2023-04-03T08:12:34;30.25;28.00;19.00
56495;PMS5003;42804;55.762;38.084;2023-04-03T08:15:05;29.00;25.75;19.00
56495;PMS5003;42804;55.762;38.084;2023-04-03T08:17:34;29.50;28.00;19.00
56495;PMS5003;42804;55.762;38.084;2023-04-03T08:20:02;33.00;28.75;19.00
56495;PMS5003;42804;55.762;38.084;2023-04-03T08:22:31;26.50;24.75;18.25
56495;PMS5003;42804;55.762;38.084;2023-04-03T08:24:59;28.00;24.25;19.00
56495;PMS5003;42804;55.762;38.084;2023-04-03T08:27:28;21.75;20.75;13.00
56495;PMS5003;42804;55.762;38.084;2023-04-03T08:29:56;31.00;29.00;18.50
56495;PMS5003;42804;55.762;38.084;2023-04-03T08:32:26;23.75;22.75;15.00
56495;PMS5003;42804;55.762;38.084;2023-04-03T08:34:54;28.75;25.75;19.00
56495;PMS5003;42804;55.762;38.084;2023-04-03T08:37:22;27.50;27.00;19.50
56495;PMS5003;42804;55.762;38.084;2023-04-03T08:39:51;27.50;26.00;17.25
56495;PMS5003;42804;55.762;38.084;2023-04-03T08:42:23;27.50;25.00;17.50
56495;PMS5003;42804;55.762;38.084;2023-04-03T08:44:59;30.00;28.75;17.75
56495;PMS5003;42804;55.762;38.084;2023-04-03T08:47:34;31.25;31.00;20.00
56495;PMS5003;42804;55.762;38.084;2023-04-03T08:50:06;20.75;17.00;9.50
56495;PMS5003;42804;55.762;38.084;2023-04-03T08:52:39;32.25;30.00;19.00
56495;PMS5003;42804;55.762;38.084;2023-04-03T08:55:13;32.25;29.75;18.00
56495;PMS5003;42804;55.762;38.084;2023-04-03T08:57:44;26.25;23.25;14.50
56495;PMS5003;42804;55.762;38.084;2023-04-03T09:00:16;26.75;25.50;16.25
56495;PMS5003;42804;55.762;38.084;2023-04-03T09:02:48;26.25;23.75;15.75
56495;PMS5003;42804;55.762;38.084;2023-04-03T09:05:17;19.25;17.25;15.00
56495;PMS5003;42804;55.762;38.084;2023-04-03T09:07:50;32.00;27.25;20.00
56495;PMS5003;42804;55.762;38.084;2023-04-03T09:10:23;24.25;23.25;15.50
56495;PMS5003;42804;55.762;38.084;2023-04-03T09:12:57;18.75;18.25;11.00
56495;PMS5003;42804;55.762;38.084;2023-04-03T09:15:27;26.25;21.00;13.00
56495;PMS5003;42804;55.762;38.084;2023-04-03T09:18:08;22.25;21.25;13.75
56495;PMS5003;42804;55.762;38.084;2023-04-03T09:20:49;19.50;18.50;13.75
56495;PMS5003;42804;55.762;38.084;2023-04-03T09:23:23;18.00;14.75;11.00
56495;PMS5003;42804;55.762;38.084;2023-04-03T09:25:53;20.50;20.25;14.00
56495;PMS5003;42804;55.762;38.084;2023-04-03T09:28:25;25.00;20.00;14.25
56495;PMS5003;42804;55.762;38.084;2023-04-03T09:30:54;29.75;25.50;15.75
56495;PMS5003;42804;55.762;38.084;2023-04-03T09:33:24;22.00;21.00;14.00
56495;PMS5003;42804;55.762;38.084;2023-04-03T09:35:53;20.50;20.00;16.00
56495;PMS5003;42804;55.762;38.084;2023-04-03T09:38:21;23.25;22.50;16.50
56495;PMS5003;42804;55.762;38.084;2023-04-03T09:40:51;24.50;19.75;13.00
56495;PMS5003;42804;55.762;38.084;2023-04-03T09:43:31;20.75;19.75;15.25
56495;PMS5003;42804;55.762;38.084;2023-04-03T09:48:55;22.75;22.50;16.75
56495;PMS5003;42804;55.762;38.084;2023-04-03T09:51:35;25.50;24.00;16.00
56495;PMS5003;42804;55.762;38.084;2023-04-03T09:54:23;22.25;21.50;15.00
56495;PMS5003;42804;55.762;38.084;2023-04-03T09:56:52;22.25;21.25;15.00
56495;PMS5003;42804;55.762;38.084;2023-04-03T09:59:22;26.00;23.00;16.50
56495;PMS5003;42804;55.762;38.084;2023-04-03T10:01:58;23.50;22.25;15.75
56495;PMS5003;42804;55.762;38.084;2023-04-03T10:04:28;21.50;21.25;15.25
56495;PMS5003;42804;55.762;38.084;2023-04-03T10:07:04;26.25;25.50;16.75
56495;PMS5003;42804;55.762;38.084;2023-04-03T10:09:54;21.00;21.00;12.75
56495;PMS5003;42804;55.762;38.084;2023-04-03T10:12:23;27.00;24.25;15.50
56495;PMS5003;42804;55.762;38.084;2023-04-03T10:14:55;25.50;24.00;14.50
56495;PMS5003;42804;55.762;38.084;2023-04-03T10:17:26;27.25;23.00;16.25
56495;PMS5003;42804;55.762;38.084;2023-04-03T10:22:54;18.50;18.50;12.00
56495;PMS5003;42804;55.762;38.084;2023-04-03T10:25:25;20.25;20.00;16.00
56495;PMS5003;42804;55.762;38.084;2023-04-03T10:27:58;24.75;21.75;15.00
56495;PMS5003;42804;55.762;38.084;2023-04-03T10:30:29;20.25;18.75;9.50
56495;PMS5003;42804;55.762;38.084;2023-04-03T10:33:01;21.00;20.50;16.00
56495;PMS5003;42804;55.762;38.084;2023-04-03T10:35:53;23.00;22.25;15.00
56495;PMS5003;42804;55.762;38.084;2023-04-03T10:38:29;22.50;17.50;12.75
56495;PMS5003;42804;55.762;38.084;2023-04-03T10:40:59;22.25;21.75;16.00
56495;PMS5003;42804;55.762;38.084;2023-04-03T10:43:33;20.75;18.75;15.00
56495;PMS5003;42804;55.762;38.084;2023-04-03T10:46:04;24.00;23.00;17.00
56495;PMS5003;42804;55.762;38.084;2023-04-03T10:48:43;19.50;17.75;14.00
56495;PMS5003;42804;55.762;38.084;2023-04-03T10:51:20;21.00;20.75;14.25
56495;PMS5003;42804;55.762;38.084;2023-04-03T10:53:55;25.00;22.00;16.00
56495;PMS5003;42804;55.762;38.084;2023-04-03T10:56:27;22.00;21.50;14.50
56495;PMS5003;42804;55.762;38.084;2023-04-03T10:58:58;22.50;20.75;15.50
56495;PMS5003;42804;55.762;38.084;2023-04-03T11:01:30;23.25;21.75;14.75
56495;PMS5003;42804;55.762;38.084;2023-04-03T11:04:00;21.75;19.25;11.50
56495;PMS5003;42804;55.762;38.084;2023-04-03T11:06:31;23.75;20.75;13.50
56495;PMS5003;42804;55.762;38.084;2023-04-03T11:09:05;24.75;23.50;16.00
56495;PMS5003;42804;55.762;38.084;2023-04-03T11:11:36;23.00;21.50;15.25
56495;PMS5003;42804;55.762;38.084;2023-04-03T11:14:09;22.50;20.50;15.50
56495;PMS5003;42804;55.762;38.084;2023-04-03T11:16:41;20.50;20.00;15.50
56495;PMS5003;42804;55.762;38.084;2023-04-03T11:19:20;22.00;19.50;14.00
56495;PMS5003;42804;55.762;38.084;2023-04-03T11:21:51;22.75;20.50;13.00
56495;PMS5003;42804;55.762;38.084;2023-04-03T11:24:24;19.50;18.25;14.00
56495;PMS5003;42804;55.762;38.084;2023-04-03T11:26:54;20.00;20.00;15.00
56495;PMS5003;42804;55.762;38.084;2023-04-03T11:29:23;23.00;21.75;15.50
56495;PMS5003;42804;55.762;38.084;2023-04-03T11:32:13;20.00;17.25;10.50
56495;PMS5003;42804;55.762;38.084;2023-04-03T11:34:45;19.75;17.75;13.00
56495;PMS5003;42804;55.762;38.084;2023-04-03T11:37:20;21.25;17.50;13.75
56495;PMS5003;42804;55.762;38.084;2023-04-03T11:40:02;14.75;13.50;8.25
56495;PMS5003;42804;55.762;38.084;2023-04-03T11:42:33;19.00;17.25;11.50
56495;PMS5003;42804;55.762;38.084;2023-04-03T11:47:49;19.50;17.75;13.00
56495;PMS5003;42804;55.762;38.084;2023-04-03T11:50:30;18.25;17.50;12.25
56495;PMS5003;42804;55.762;38.084;2023-04-03T11:53:03;19.00;16.50;12.00
56495;PMS5003;42804;55.762;38.084;2023-04-03T11:55:59;17.50;16.75;13.00
56495;PMS5003;42804;55.762;38.084;2023-04-03T11:58:29;18.25;17.00;9.50
56495;PMS5003;42804;55.762;38.084;2023-04-03T12:01:02;14.75;13.75;7.75
56495;PMS5003;42804;55.762;38.084;2023-04-03T12:03:32;16.00;15.75;11.50
56495;PMS5003;42804;55.762;38.084;2023-04-03T12:08:44;16.25;16.00;12.00
56495;PMS5003;42804;55.762;38.084;2023-04-03T12:11:15;18.25;18.00;12.50
56495;PMS5003;42804;55.762;38.084;2023-04-03T12:14:02;18.25;17.25;11.75
56495;PMS5003;42804;55.762;38.084;2023-04-03T12:16:33;18.00;18.00;13.50
56495;PMS5003;42804;55.762;38.084;2023-04-03T12:22:18;18.00;18.00;12.75
56495;PMS5003;42804;55.762;38.084;2023-04-03T12:24:48;17.00;16.00;11.75
56495;PMS5003;42804;55.762;38.084;2023-04-03T12:27:27;18.50;15.25;11.75
56495;PMS5003;42804;55.762;38.084;2023-04-03T12:29:59;17.00;15.50;10.00
56495;PMS5003;42804;55.762;38.084;2023-04-03T12:32:48;15.00;15.00;10.75
56495;PMS5003;42804;55.762;38.084;2023-04-03T12:35:39;16.50;14.75;11.00
56495;PMS5003;42804;55.762;38.084;2023-04-03T12:38:16;13.50;13.25;9.75
56495;PMS5003;42804;55.762;38.084;2023-04-03T12:40:48;13.50;13.50;11.00
56495;PMS5003;42804;55.762;38.084;2023-04-03T12:43:27;15.25;14.25;10.50
56495;PMS5003;42804;55.762;38.084;2023-04-03T12:45:59;15.00;15.00;11.00
56495;PMS5003;42804;55.762;38.084;2023-04-03T12:48:31;14.25;14.25;10.50
56495;PMS5003;42804;55.762;38.084;2023-04-03T12:50:59;17.50;17.50;12.00
56495;PMS5003;42804;55.762;38.084;2023-04-03T12:53:29;17.75;17.25;11.00
56495;PMS5003;42804;55.762;38.084;2023-04-03T12:58:45;20.00;16.00;10.50
56495;PMS5003;42804;55.762;38.084;2023-04-03T13:01:14;18.25;17.00;12.00
56495;PMS5003;42804;55.762;38.084;2023-04-03T13:03:45;18.00;18.00;12.00
56495;PMS5003;42804;55.762;38.084;2023-04-03T13:06:17;22.25;19.50;13.50
56495;PMS5003;42804;55.762;38.084;2023-04-03T13:08:49;21.75;19.50;13.25
56495;PMS5003;42804;55.762;38.084;2023-04-03T13:11:18;19.75;19.00;12.75
56495;PMS5003;42804;55.762;38.084;2023-04-03T13:13:56;23.00;21.25;16.00
56495;PMS5003;42804;55.762;38.084;2023-04-03T13:16:25;21.25;20.25;14.75
56495;PMS5003;42804;55.762;38.084;2023-04-03T13:18:54;19.25;18.00;13.00
56495;PMS5003;42804;55.762;38.084;2023-04-03T13:21:23;68.40;52.20;30.60
56495;PMS5003;42804;55.762;38.084;2023-04-03T13:23:53;20.50;20.50;14.25
56495;PMS5003;42804;55.762;38.084;2023-04-03T13:26:37;25.75;24.50;16.75
56495;PMS5003;42804;55.762;38.084;2023-04-03T13:29:07;20.25;18.75;13.25
56495;PMS5003;42804;55.762;38.084;2023-04-03T13:31:53;22.25;20.25;14.50
56495;PMS5003;42804;55.762;38.084;2023-04-03T13:34:24;23.00;22.00;15.00
56495;PMS5003;42804;55.762;38.084;2023-04-03T13:36:56;24.00;22.75;15.50
56495;PMS5003;42804;55.762;38.084;2023-04-03T13:39:26;20.75;20.75;14.25
56495;PMS5003;42804;55.762;38.084;2023-04-03T13:41:55;24.00;21.50;15.00
56495;PMS5003;42804;55.762;38.084;2023-04-03T13:44:30;23.00;21.50;14.25
56495;PMS5003;42804;55.762;38.084;2023-04-03T13:47:01;24.50;23.75;16.50
56495;PMS5003;42804;55.762;38.084;2023-04-03T13:49:43;22.00;19.00;13.25
56495;PMS5003;42804;55.762;38.084;2023-04-03T13:52:21;19.25;17.50;12.25
56495;PMS5003;42804;55.762;38.084;2023-04-03T13:54:52;17.75;16.00;11.75
56495;PMS5003;42804;55.762;38.084;2023-04-03T13:57:20;19.25;16.25;11.75
56495;PMS5003;42804;55.762;38.084;2023-04-03T13:59:50;17.25;16.00;12.25
56495;PMS5003;42804;55.762;38.084;2023-04-03T14:02:20;10.00;10.00;8.00
56495;PMS5003;42804;55.762;38.084;2023-04-03T14:04:53;18.00;17.50;13.00
56495;PMS5003;42804;55.762;38.084;2023-04-03T14:07:24;20.25;18.00;11.50
56495;PMS5003;42804;55.762;38.084;2023-04-03T14:09:53;20.25;18.25;14.00
56495;PMS5003;42804;55.762;38.084;2023-04-03T14:12:24;16.25;13.75;10.50
56495;PMS5003;42804;55.762;38.084;2023-04-03T14:14:59;13.50;12.50;8.00